createdAt,value
2023-02-03T00:00:33.672Z,2.10
2023-02-03T00:03:00.259Z,2.60
2023-02-03T00:05:27.291Z,2.40
2023-02-03T00:07:53.963Z,2.25
2023-02-03T00:10:21.663Z,2.20
2023-02-03T00:12:50.288Z,2.47
2023-02-03T00:17:43.496Z,2.22
2023-02-03T00:20:11.130Z,2.55
2023-02-03T00:22:50.273Z,2.28
2023-02-03T00:25:17.188Z,2.13
2023-02-03T00:27:43.865Z,2.33
2023-02-03T00:30:12.015Z,1.80
2023-02-03T00:32:38.990Z,1.83
2023-02-03T00:35:05.823Z,2.33
2023-02-03T00:37:32.301Z,2.40
2023-02-03T00:39:58.821Z,2.30
2023-02-03T00:42:25.328Z,2.65
2023-02-03T00:44:53.257Z,1.88
2023-02-03T00:47:20.755Z,1.90
2023-02-03T00:49:47.482Z,2.47
2023-02-03T00:52:15.413Z,2.17
2023-02-03T00:54:41.932Z,2.20
2023-02-03T00:57:08.970Z,1.48
2023-02-03T00:59:35.571Z,1.85
2023-02-03T01:02:02.064Z,1.95
2023-02-03T01:04:28.646Z,1.95
2023-02-03T01:06:57.510Z,1.60
2023-02-03T01:09:24.680Z,1.70
2023-02-03T01:11:51.326Z,1.98
2023-02-03T01:14:18.122Z,1.65
2023-02-03T01:16:44.725Z,1.65
2023-02-03T01:19:11.535Z,1.80
2023-02-03T01:21:38.864Z,1.77
2023-02-03T01:24:05.502Z,1.55
2023-02-03T01:26:32.082Z,1.38
2023-02-03T01:29:01.177Z,1.45
2023-02-03T01:31:31.985Z,2.20
2023-02-03T01:33:58.800Z,2.03
2023-02-03T01:36:26.889Z,2.55
2023-02-03T01:38:53.666Z,2.35
2023-02-03T01:41:22.814Z,2.35
2023-02-03T01:43:52.186Z,2.75
2023-02-03T01:46:23.209Z,2.72
2023-02-03T01:48:50.889Z,2.20
2023-02-03T01:51:17.996Z,2.50
2023-02-03T01:53:44.800Z,2.63
2023-02-03T01:56:11.480Z,2.47
2023-02-03T01:58:41.142Z,2.55
2023-02-03T02:01:08.523Z,2.20
2023-02-03T02:03:41.967Z,2.20
2023-02-03T02:06:11.311Z,2.17
2023-02-03T02:08:40.233Z,2.00
2023-02-03T02:11:07.618Z,2.88
2023-02-03T02:13:37.715Z,2.38
2023-02-03T02:16:35.812Z,2.13
2023-02-03T02:19:09.405Z,2.60
2023-02-03T02:21:53.909Z,2.53
2023-02-03T02:24:29.670Z,2.53
2023-02-03T02:27:06.604Z,2.60
2023-02-03T02:30:06.639Z,2.80
2023-02-03T02:32:57.489Z,2.40
2023-02-03T02:35:23.909Z,2.17
2023-02-03T02:37:56.498Z,2.10
2023-02-03T02:40:43.959Z,1.92
2023-02-03T02:43:19.567Z,1.98
2023-02-03T02:45:50.615Z,1.90
2023-02-03T02:48:32.154Z,1.55
2023-02-03T02:51:04.100Z,1.45
2023-02-03T02:53:35.974Z,1.73
2023-02-03T02:56:07.642Z,1.48
2023-02-03T02:58:36.196Z,1.90
2023-02-03T03:01:03.883Z,1.60
2023-02-03T03:03:33.507Z,1.63
2023-02-03T03:06:03.721Z,1.30
2023-02-03T03:08:36.115Z,1.90
2023-02-03T03:11:03.427Z,1.55
2023-02-03T03:13:34.687Z,1.60
2023-02-03T03:16:05.150Z,1.65
2023-02-03T03:18:35.630Z,1.65
2023-02-03T03:21:07.009Z,1.30
2023-02-03T03:23:39.862Z,1.45
2023-02-03T03:26:28.994Z,1.50
2023-02-03T03:29:07.379Z,1.55
2023-02-03T03:31:37.768Z,1.67
2023-02-03T03:34:04.555Z,1.33
2023-02-03T03:36:59.139Z,1.70
2023-02-03T03:39:37.214Z,1.88
2023-02-03T03:42:31.794Z,1.50
2023-02-03T03:45:04.422Z,1.48
2023-02-03T03:47:35.932Z,1.40
2023-02-03T03:50:06.619Z,1.50
2023-02-03T03:52:36.180Z,1.70
2023-02-03T03:55:08.791Z,1.30
2023-02-03T03:57:59.951Z,2.05
2023-02-03T04:00:31.539Z,1.88
2023-02-03T04:03:02.190Z,2.20
2023-02-03T04:05:28.737Z,1.80
2023-02-03T04:07:55.281Z,1.60
2023-02-03T04:10:32.396Z,1.73
2023-02-03T04:12:59.248Z,2.13
2023-02-03T04:15:26.092Z,1.42
2023-02-03T04:17:52.683Z,1.50
2023-02-03T04:20:19.218Z,1.92
2023-02-03T04:22:45.749Z,1.40
2023-02-03T04:25:12.724Z,1.25
2023-02-03T04:27:40.269Z,1.63
2023-02-03T04:30:07.910Z,1.73
2023-02-03T04:32:35.528Z,1.75
2023-02-03T04:35:04.875Z,1.40
2023-02-03T04:37:31.481Z,1.50
2023-02-03T04:39:58.025Z,1.25
2023-02-03T04:42:24.990Z,1.50
2023-02-03T04:44:51.657Z,1.48
2023-02-03T04:47:19.032Z,1.80
2023-02-03T04:49:45.934Z,2.30
2023-02-03T04:52:12.972Z,1.75
2023-02-03T04:54:40.361Z,1.98
2023-02-03T04:57:07.235Z,2.50
2023-02-03T04:59:33.911Z,2.13
2023-02-03T05:02:03.640Z,2.92
2023-02-03T05:04:30.301Z,2.17
2023-02-03T05:06:57.599Z,2.22
2023-02-03T05:09:25.231Z,1.50
2023-02-03T05:11:51.934Z,1.60
2023-02-03T05:14:18.500Z,1.70
2023-02-03T05:16:46.457Z,1.70
2023-02-03T05:19:13.429Z,1.67
2023-02-03T05:21:40.644Z,1.60
2023-02-03T05:24:08.022Z,1.48
2023-02-03T05:26:36.046Z,1.60
2023-02-03T05:29:03.172Z,1.60
2023-02-03T05:31:29.763Z,1.50
2023-02-03T05:33:56.821Z,1.73
2023-02-03T05:36:23.336Z,1.60
2023-02-03T05:38:49.835Z,1.90
2023-02-03T05:41:35.017Z,2.10
2023-02-03T05:44:01.543Z,6.70
2023-02-03T05:46:28.118Z,4.30
2023-02-03T05:48:54.675Z,3.00
2023-02-03T05:51:21.272Z,2.38
2023-02-03T05:53:47.816Z,2.83
2023-02-03T05:56:15.606Z,3.47
2023-02-03T05:58:42.146Z,3.13
2023-02-03T06:01:09.191Z,3.38
2023-02-03T06:03:35.906Z,2.60
2023-02-03T06:06:02.684Z,2.92
2023-02-03T06:08:29.211Z,3.15
2023-02-03T06:11:02.179Z,3.10
2023-02-03T06:13:29.100Z,2.35
2023-02-03T06:15:56.361Z,2.58
2023-02-03T06:18:23.241Z,2.85
2023-02-03T06:20:51.366Z,2.83
2023-02-03T06:23:19.206Z,3.38
2023-02-03T06:25:49.327Z,3.23
2023-02-03T06:28:16.785Z,3.05
2023-02-03T06:30:44.049Z,3.30
2023-02-03T06:33:10.734Z,3.63
2023-02-03T06:35:37.434Z,3.30
2023-02-03T06:38:03.962Z,3.30
2023-02-03T06:40:31.064Z,3.30
2023-02-03T06:42:57.789Z,3.53
2023-02-03T06:45:25.070Z,3.05
2023-02-03T06:47:52.010Z,3.53
2023-02-03T06:50:19.145Z,3.38
2023-02-03T06:52:46.029Z,3.55
2023-02-03T06:55:13.076Z,3.58
2023-02-03T06:57:46.871Z,3.35
2023-02-03T07:00:18.184Z,2.85
2023-02-03T07:02:45.464Z,3.38
2023-02-03T07:05:12.033Z,3.10
2023-02-03T07:07:40.104Z,3.72
2023-02-03T07:10:08.054Z,3.40
2023-02-03T07:12:36.439Z,3.30
2023-02-03T07:15:04.471Z,3.45
2023-02-03T07:17:31.252Z,3.45
2023-02-03T07:19:57.907Z,3.58
2023-02-03T07:22:24.495Z,3.92
2023-02-03T07:24:51.007Z,3.50
2023-02-03T07:27:17.534Z,4.03
2023-02-03T07:29:44.014Z,3.15
2023-02-03T07:32:10.542Z,2.90
2023-02-03T07:34:37.057Z,2.95
2023-02-03T07:37:05.378Z,3.40
2023-02-03T07:39:33.098Z,3.30
2023-02-03T07:41:59.635Z,3.50
2023-02-03T07:44:26.235Z,3.95
2023-02-03T07:46:52.794Z,3.53
2023-02-03T07:49:19.345Z,3.65
2023-02-03T07:51:45.837Z,4.43
2023-02-03T07:54:12.446Z,4.15
2023-02-03T07:56:39.153Z,3.80
2023-02-03T07:59:05.699Z,3.55
2023-02-03T08:01:34.163Z,3.95
2023-02-03T08:04:02.128Z,4.18
2023-02-03T08:06:30.626Z,4.03
2023-02-03T08:08:57.171Z,4.25
2023-02-03T08:11:23.650Z,4.03
2023-02-03T08:13:50.165Z,4.60
2023-02-03T08:16:16.971Z,4.53
2023-02-03T08:18:43.451Z,5.05
2023-02-03T08:21:11.613Z,5.18
2023-02-03T08:23:38.516Z,5.25
2023-02-03T08:26:06.019Z,5.07
2023-02-03T08:28:32.670Z,5.57
2023-02-03T08:30:59.461Z,4.47
2023-02-03T08:33:26.334Z,4.80
2023-02-03T08:35:52.901Z,4.97
2023-02-03T08:38:19.429Z,5.30
2023-02-03T08:40:45.944Z,6.05
2023-02-03T08:43:12.608Z,5.18
2023-02-03T08:45:40.729Z,5.57
2023-02-03T08:48:07.566Z,5.30
2023-02-03T08:50:34.406Z,4.97
2023-02-03T08:53:01.030Z,5.05
2023-02-03T08:55:27.688Z,3.22
2023-02-03T08:57:54.160Z,3.20
2023-02-03T09:00:21.105Z,2.50
2023-02-03T09:02:47.587Z,2.90
2023-02-03T09:05:16.086Z,3.10
2023-02-03T09:07:42.665Z,2.50
2023-02-03T09:10:10.643Z,3.28
2023-02-03T09:12:37.181Z,2.80
2023-02-03T09:15:03.918Z,3.83
2023-02-03T09:17:30.465Z,3.67
2023-02-03T09:19:57.061Z,3.20
2023-02-03T09:22:23.690Z,2.97
2023-02-03T09:24:51.467Z,3.05
2023-02-03T09:27:18.092Z,2.97
2023-02-03T09:29:44.620Z,2.38
2023-02-03T09:32:13.168Z,3.17
2023-02-03T09:34:41.382Z,3.63
2023-02-03T09:37:09.096Z,2.78
2023-02-03T09:39:35.648Z,3.15
2023-02-03T09:42:27.014Z,3.05
2023-02-03T09:45:29.071Z,2.30
2023-02-03T09:48:02.353Z,2.33
2023-02-03T09:50:32.077Z,2.10
2023-02-03T09:52:59.110Z,1.65
2023-02-03T09:55:43.273Z,2.20
2023-02-03T09:58:15.014Z,4.40
2023-02-03T10:00:46.989Z,2.28
2023-02-03T10:03:13.436Z,2.28
2023-02-03T10:06:07.833Z,2.20
2023-02-03T10:08:53.167Z,2.10
2023-02-03T10:11:40.496Z,1.90
2023-02-03T10:14:22.471Z,2.00
2023-02-03T10:17:02.182Z,1.88
2023-02-03T10:19:46.585Z,1.83
2023-02-03T10:22:18.659Z,2.20
2023-02-03T10:24:57.807Z,2.13
2023-02-03T10:27:25.920Z,1.92
2023-02-03T10:30:12.399Z,2.35
2023-02-03T10:32:39.133Z,2.28
2023-02-03T10:35:12.103Z,2.42
2023-02-03T10:37:45.305Z,2.38
2023-02-03T10:40:14.488Z,2.03
2023-02-03T10:43:01.544Z,2.67
2023-02-03T10:45:29.518Z,2.60
2023-02-03T10:47:56.464Z,2.25
2023-02-03T10:50:31.836Z,2.22
2023-02-03T10:53:23.482Z,1.55
2023-02-03T10:56:11.864Z,1.77
2023-02-03T11:01:13.209Z,1.95
2023-02-03T11:04:01.242Z,2.30
2023-02-03T11:06:28.418Z,2.42
2023-02-03T11:08:55.689Z,2.00
2023-02-03T11:11:33.858Z,2.00
2023-02-03T11:14:03.556Z,1.50
2023-02-03T11:16:37.835Z,1.70
2023-02-03T11:19:10.393Z,1.70
2023-02-03T11:21:42.631Z,1.80
2023-02-03T11:24:21.683Z,1.60
2023-02-03T11:26:51.010Z,1.60
2023-02-03T11:29:32.267Z,1.48
2023-02-03T11:32:01.907Z,1.80
2023-02-03T11:34:34.160Z,1.70
2023-02-03T11:37:38.234Z,1.90
2023-02-03T11:40:09.382Z,1.45
2023-02-03T11:42:41.599Z,1.40
2023-02-03T11:45:28.333Z,1.38
2023-02-03T11:48:28.067Z,1.65
2023-02-03T11:51:04.258Z,1.67
2023-02-03T11:53:57.207Z,1.63
2023-02-03T11:56:29.615Z,1.67
2023-02-03T11:59:02.142Z,1.70
2023-02-03T12:01:56.922Z,1.73
2023-02-03T12:04:48.853Z,1.58
2023-02-03T12:07:32.896Z,1.50
2023-02-03T12:10:14.606Z,1.10
2023-02-03T12:12:59.845Z,1.40
2023-02-03T12:15:35.555Z,1.13
2023-02-03T12:18:15.198Z,1.20
2023-02-03T12:20:56.355Z,1.00
2023-02-03T12:23:55.686Z,1.02
2023-02-03T12:26:25.300Z,0.98
2023-02-03T12:29:01.850Z,1.00
2023-02-03T12:31:29.496Z,1.20
2023-02-03T12:34:23.515Z,1.08
2023-02-03T12:36:58.585Z,0.95
2023-02-03T12:39:35.888Z,1.00
2023-02-03T12:42:11.657Z,0.85
2023-02-03T12:44:47.434Z,1.00
2023-02-03T12:47:22.157Z,1.00
2023-02-03T12:49:57.829Z,0.88
2023-02-03T12:52:33.567Z,0.90
2023-02-03T12:55:03.739Z,0.88
2023-02-03T12:57:40.397Z,0.73
2023-02-03T13:00:26.849Z,0.77
2023-02-03T13:03:12.287Z,0.70
2023-02-03T13:05:48.676Z,0.70
2023-02-03T13:08:24.111Z,0.75
2023-02-03T13:10:55.759Z,0.90
2023-02-03T13:13:31.506Z,1.20
2023-02-03T13:16:00.115Z,0.95
2023-02-03T13:18:34.842Z,0.80
2023-02-03T13:21:01.604Z,0.98
2023-02-03T13:23:28.212Z,0.75
2023-02-03T13:26:11.075Z,1.10
2023-02-03T13:28:46.813Z,0.93
2023-02-03T13:31:40.921Z,1.10
2023-02-03T13:34:40.483Z,1.00
2023-02-03T13:37:20.329Z,1.02
2023-02-03T13:39:53.037Z,0.82
2023-02-03T13:42:22.606Z,1.00
2023-02-03T13:44:53.520Z,1.17
2023-02-03T13:47:27.898Z,0.98
2023-02-03T13:50:10.254Z,0.98
2023-02-03T13:52:44.417Z,0.98
2023-02-03T13:55:28.677Z,1.10
2023-02-03T13:57:55.798Z,0.95
2023-02-03T14:00:44.387Z,0.98
2023-02-03T14:03:40.479Z,1.05
2023-02-03T14:06:36.397Z,1.00
2023-02-03T14:09:19.249Z,2.65
2023-02-03T14:11:49.204Z,1.20
2023-02-03T14:14:15.656Z,1.20
2023-02-03T14:16:44.111Z,1.67
2023-02-03T14:19:13.252Z,1.02
2023-02-03T14:24:16.020Z,0.93
2023-02-03T14:26:46.954Z,1.58
2023-02-03T14:29:29.525Z,1.20
2023-02-03T14:32:01.839Z,1.67
2023-02-03T14:34:34.549Z,1.73
2023-02-03T14:37:14.553Z,1.52
2023-02-03T14:39:59.960Z,1.25
2023-02-03T14:43:09.345Z,0.90
2023-02-03T14:45:51.322Z,1.38
2023-02-03T14:48:33.296Z,1.20
2023-02-03T14:51:18.525Z,0.95
2023-02-03T14:54:03.477Z,1.00
2023-02-03T14:57:16.095Z,1.17
2023-02-03T14:59:56.425Z,1.10
2023-02-03T15:02:31.070Z,1.25
2023-02-03T15:05:12.726Z,1.10
2023-02-03T15:07:45.665Z,1.25
2023-02-03T15:10:21.328Z,1.40
2023-02-03T15:12:50.100Z,1.00
2023-02-03T15:15:26.754Z,1.50
2023-02-03T15:17:59.673Z,1.02
2023-02-03T15:20:35.907Z,1.50
2023-02-03T15:23:03.310Z,1.20
2023-02-03T15:25:32.957Z,1.52
2023-02-03T15:28:20.540Z,2.15
2023-02-03T15:30:52.640Z,4.23
2023-02-03T15:33:22.765Z,9.48
2023-02-03T15:36:01.477Z,2.45
2023-02-03T15:38:39.256Z,2.40
2023-02-03T15:41:10.463Z,1.58
2023-02-03T15:43:39.255Z,1.35
2023-02-03T15:46:07.993Z,1.30
2023-02-03T15:48:47.137Z,2.20
2023-02-03T15:51:26.355Z,1.67
2023-02-03T15:54:03.364Z,1.38
2023-02-03T15:56:55.118Z,1.92
2023-02-03T15:59:35.262Z,1.80
2023-02-03T16:02:12.081Z,2.00
2023-02-03T16:04:39.000Z,1.85
2023-02-03T16:07:05.676Z,2.10
2023-02-03T16:09:36.009Z,2.13
2023-02-03T16:12:35.744Z,11.73
2023-02-03T16:15:03.083Z,3.60
2023-02-03T16:17:40.316Z,3.30
2023-02-03T16:20:12.933Z,2.72
2023-02-03T16:22:45.393Z,3.20
2023-02-03T16:25:27.913Z,2.83
2023-02-03T16:28:20.602Z,2.72
2023-02-03T16:31:13.498Z,2.75
2023-02-03T16:34:03.213Z,2.78
2023-02-03T16:36:48.736Z,3.67
2023-02-03T16:39:34.060Z,3.08
2023-02-03T16:42:19.363Z,3.47
2023-02-03T16:45:04.932Z,2.58
2023-02-03T16:47:51.097Z,3.72
2023-02-03T16:50:41.757Z,3.42
2023-02-03T16:53:26.641Z,3.10
2023-02-03T16:55:55.137Z,4.10
2023-02-03T16:58:21.743Z,3.90
2023-02-03T17:00:50.379Z,3.60
2023-02-03T17:05:45.925Z,5.70
2023-02-03T17:08:13.419Z,3.95
2023-02-03T17:10:42.761Z,2.65
2023-02-03T17:13:10.793Z,2.75
2023-02-03T17:15:46.140Z,2.85
2023-02-03T17:18:15.073Z,2.90
2023-02-03T17:20:42.786Z,2.80
2023-02-03T17:23:10.767Z,2.47
2023-02-03T17:25:38.306Z,2.03
2023-02-03T17:28:07.420Z,2.03
2023-02-03T17:30:35.332Z,3.10
2023-02-03T17:33:03.504Z,5.70
2023-02-03T17:35:30.437Z,3.33
2023-02-03T17:37:57.383Z,4.25
2023-02-03T17:54:10.943Z,3.83
2023-02-03T17:56:37.710Z,3.30
2023-02-03T17:59:05.803Z,2.95
2023-02-03T18:01:32.747Z,3.83
2023-02-03T18:04:02.633Z,3.60
2023-02-03T18:06:30.605Z,4.00
2023-02-03T18:09:01.237Z,3.17
2023-02-03T18:11:29.315Z,3.80
2023-02-03T18:13:56.160Z,3.70
2023-02-03T18:16:26.173Z,4.00
2023-02-03T18:18:53.643Z,4.47
2023-02-03T18:21:22.191Z,3.67
2023-02-03T18:23:51.103Z,3.65
2023-02-03T18:26:19.843Z,13.80
2023-02-03T18:31:17.584Z,7.82
2023-02-03T18:33:46.238Z,8.77
2023-02-03T18:36:13.814Z,8.73
2023-02-03T18:38:45.271Z,8.55
2023-02-03T18:41:15.209Z,7.13
2023-02-03T18:43:41.829Z,5.88
2023-02-03T18:46:14.095Z,6.05
2023-02-03T18:48:40.578Z,5.43
2023-02-03T18:51:15.959Z,6.25
2023-02-03T18:53:43.935Z,6.68
2023-02-03T18:56:16.510Z,5.88
2023-02-03T18:58:43.365Z,4.53
2023-02-03T19:01:25.365Z,4.57
2023-02-03T19:03:52.097Z,4.95
2023-02-03T19:06:18.828Z,3.88
2023-02-03T19:08:45.864Z,4.35
2023-02-03T19:11:13.562Z,4.15
2023-02-03T19:13:40.968Z,3.40
2023-02-03T19:16:09.191Z,4.00
2023-02-03T19:18:36.271Z,3.85
2023-02-03T19:21:02.815Z,4.38
2023-02-03T19:23:29.624Z,3.90
2023-02-03T19:25:56.347Z,4.03
2023-02-03T19:28:30.636Z,3.40
2023-02-03T19:31:08.452Z,3.58
2023-02-03T19:33:36.679Z,4.22
2023-02-03T19:36:05.105Z,3.77
2023-02-03T19:38:31.843Z,4.43
2023-02-03T19:41:01.705Z,8.13
2023-02-03T19:43:29.713Z,5.88
2023-02-03T19:45:56.548Z,4.72
2023-02-03T19:48:22.990Z,5.55
2023-02-03T19:50:49.842Z,4.80
2023-02-03T19:53:17.580Z,4.22
2023-02-03T19:55:44.950Z,4.68
2023-02-03T19:58:12.656Z,5.10
2023-02-03T20:00:40.423Z,4.85
2023-02-03T20:03:07.091Z,5.40
2023-02-03T20:05:34.516Z,5.13
2023-02-03T20:08:01.157Z,5.60
2023-02-03T20:10:28.465Z,5.93
2023-02-03T20:12:55.476Z,6.90
2023-02-03T20:15:22.088Z,7.00
2023-02-03T20:17:48.641Z,6.90
2023-02-03T20:20:17.119Z,6.40
2023-02-03T20:22:44.805Z,5.72
2023-02-03T20:25:11.380Z,5.57
2023-02-03T20:27:37.989Z,6.13
2023-02-03T20:30:05.397Z,4.57
2023-02-03T20:32:31.927Z,3.75
2023-02-03T20:34:59.908Z,4.18
2023-02-03T20:37:26.436Z,4.20
2023-02-03T20:39:53.029Z,3.95
2023-02-03T20:42:19.619Z,4.25
2023-02-03T20:44:46.121Z,3.60
2023-02-03T20:47:14.846Z,3.95
2023-02-03T20:52:13.635Z,3.25
2023-02-03T20:54:40.926Z,3.35
2023-02-03T20:57:17.770Z,3.20
2023-02-03T20:59:48.422Z,4.20
2023-02-03T21:02:18.276Z,4.10
2023-02-03T21:05:00.261Z,3.95
2023-02-03T21:07:30.589Z,3.67
2023-02-03T21:09:59.172Z,4.20
2023-02-03T21:12:28.147Z,3.85
2023-02-03T21:14:55.196Z,3.58
2023-02-03T21:17:27.253Z,3.42
2023-02-03T21:19:54.961Z,3.88
2023-02-03T21:22:26.833Z,3.55
2023-02-03T21:24:58.349Z,4.10
2023-02-03T21:27:29.133Z,4.15
2023-02-03T21:29:57.611Z,4.20
2023-02-03T21:32:38.990Z,4.03
2023-02-03T21:35:31.907Z,4.53
2023-02-03T21:38:04.051Z,3.72
2023-02-03T21:40:33.322Z,4.00
2023-02-03T21:43:01.476Z,3.80
2023-02-03T21:45:35.609Z,3.63
2023-02-03T21:48:29.039Z,3.63
2023-02-03T21:50:59.497Z,2.92
2023-02-03T21:53:32.926Z,3.13
2023-02-03T21:56:16.126Z,2.78
2023-02-03T21:58:44.198Z,2.60
2023-02-03T22:01:16.441Z,2.75
2023-02-03T22:03:47.574Z,2.58
2023-02-03T22:06:28.868Z,3.05
2023-02-03T22:08:58.703Z,3.03
2023-02-03T22:11:27.753Z,3.03
2023-02-03T22:13:54.769Z,3.40
2023-02-03T22:16:21.862Z,3.08
2023-02-03T22:18:49.209Z,2.80
2023-02-03T22:21:16.661Z,3.35
2023-02-03T22:23:43.844Z,3.00
2023-02-03T22:26:12.228Z,3.10
2023-02-03T22:28:40.604Z,3.08
2023-02-03T22:31:08.516Z,3.03
2023-02-03T22:33:35.860Z,2.90
2023-02-03T22:36:03.436Z,3.28
2023-02-03T22:38:30.618Z,2.88
2023-02-03T22:40:57.145Z,3.20
2023-02-03T22:43:23.930Z,3.60
2023-02-03T22:45:50.449Z,3.40
2023-02-03T22:48:16.971Z,4.13
2023-02-03T22:50:43.481Z,3.42
2023-02-03T22:53:10.358Z,3.45
2023-02-03T22:55:41.323Z,4.20
2023-02-03T22:58:09.135Z,3.53
2023-02-03T23:00:35.886Z,3.90
2023-02-03T23:03:02.665Z,3.47
2023-02-03T23:05:29.252Z,4.10
2023-02-03T23:07:55.751Z,3.55
2023-02-03T23:10:25.394Z,3.45
2023-02-03T23:12:53.446Z,3.80
2023-02-03T23:15:20.178Z,3.85
2023-02-03T23:17:46.752Z,3.67
2023-02-03T23:20:15.681Z,3.30
2023-02-03T23:22:42.737Z,4.32
2023-02-03T23:25:10.549Z,5.25
2023-02-03T23:27:37.911Z,3.77
2023-02-03T23:30:06.279Z,3.67
2023-02-03T23:32:33.862Z,4.28
2023-02-03T23:38:11.243Z,3.78
2023-02-03T23:40:37.797Z,3.80
2023-02-03T23:43:04.257Z,3.63
2023-02-03T23:45:30.745Z,3.70
2023-02-03T23:47:57.438Z,3.58
2023-02-03T23:50:23.963Z,3.83
2023-02-03T23:52:50.488Z,4.63
2023-02-03T23:55:19.752Z,4.55
2023-02-03T23:57:46.586Z,4.15
